This is the latest recevied weather packets stored in our database for station/object KC4ANB. If no packets are shown the sender has not sent any weather packets the latest 10 day(s).
| Time | Temp. | Humidity | Pressure | Rain* | Wind** | Luminosity | Snow |
|---|---|---|---|---|---|---|---|
| 1777174339 | 18.89° C | 93% | 1009.7 hPa | 0 mm | - | - | - |
| 1777172536 | 19.44° C | 92% | 1009.7 hPa | 0 mm | - | - | - |
| 1777171336 | 19.44° C | 90% | 1009.4 hPa | 0 mm | - | - | - |
| 1777167737 | 20° C | 90% | 1008.9 hPa | 0 mm | - | - | - |
| 1777162357 | 20.56° C | 83% | 1007.8 hPa | 0 mm | - | - | - |
| 1777160536 | 20.56° C | 85% | 1007.8 hPa | 0 mm | - | - | - |
| 1777157536 | 22.78° C | 82% | 1007.7 hPa | 0 mm | - | - | - |
| 1777147946 | 23.89° C | 75% | 1008.1 hPa | 0 mm | - | - | - |
| 1777146738 | 23.89° C | 76% | 1008.3 hPa | 0 mm | - | - | - |
| 1777144338 | 23.33° C | 77% | 1008.7 hPa | 0 mm | - | - | - |
| 1777143137 | 23.89° C | 75% | 1008.9 hPa | 0 mm | - | - | - |
| 1777138937 | 23.33° C | 80% | 1009.4 hPa | 0 mm | - | - | - |
| 1777137145 | 21.67° C | 87% | 1009.3 hPa | 0 mm | - | - | - |
| 1777134737 | 20° C | 90% | 1009.8 hPa | 0 mm | - | - | - |
| 1777124537 | 17.78° C | 99% | 1008.8 hPa | 0 mm | - | - | - |
| 1777122737 | 17.22° C | 99% | 1008.8 hPa | 0 mm | - | - | - |
| 1777121537 | 17.22° C | 99% | 1009.3 hPa | 0 mm | - | - | - |
| 1777115537 | 16.67° C | 98% | 1009.1 hPa | 0 mm | - | - | - |
| 1777113157 | 17.22° C | 98% | 1008.4 hPa | 0 mm | - | - | - |
| 1777107737 | 17.78° C | 98% | 1008.5 hPa | 1.02 mm | - | - | - |
| 1777104157 | 17.78° C | 97% | 1008.5 hPa | 0.76 mm | - | - | - |
| 1777102336 | 17.78° C | 97% | 1008.1 hPa | 0 mm | - | - | - |
| 1777100536 | 17.78° C | 96% | 1007.9 hPa | 0 mm | - | - | - |
| 1777099336 | 17.78° C | 96% | 1008.1 hPa | 0.25 mm | - | - | - |
| 1777090937 | 18.89° C | 85% | 1009.6 hPa | 0 mm | - | - | - |
* Rain latest hour (hover to see other rain measurements)
** Current wind speed in m/s (hover to see current wind gust speed)